Time;durP1;ratioP1;P1;durP2;ratioP2;P2;SDS_P1;SDS_P2;PMS_P1;PMS_P2;Temp;Humidity;BMP_temperature;BMP_pressure;BME280_temperature;BME280_humidity;BME280_pressure;Samples;Min_cycle;Max_cycle;Signal;HPM_P1;HPM_P2
2022/10/30 00:01:05;;;;;;;44.65;28.95;;;;;;;6.76;89.20;98398.21;1671048;85;20997;-77
2022/10/30 00:03:34;;;;;;;47.35;27.40;;;;;;;6.72;89.62;98397.33;1675774;85;21010;-77
2022/10/30 00:06:04;;;;;;;52.40;30.15;;;;;;;6.67;89.52;98400.02;1666112;84;21029;-76
2022/10/30 00:08:32;;;;;;;49.25;29.48;;;;;;;6.64;89.22;98397.39;1669559;84;21073;-76
2022/10/30 00:11:08;;;;;;;50.95;30.23;;;;;;;6.64;89.31;98396.08;1675866;84;21022;-75
2022/10/30 00:13:36;;;;;;;47.95;29.20;;;;;;;6.62;89.40;98394.34;1679510;84;21057;-76
2022/10/30 00:16:06;;;;;;;52.67;30.05;;;;;;;6.56;89.31;98396.13;1634608;86;20967;-76
2022/10/30 00:18:36;;;;;;;52.23;30.70;;;;;;;6.51;89.37;98402.34;1678760;84;20974;-77
2022/10/30 00:21:12;;;;;;;50.17;30.60;;;;;;;6.50;89.43;98415.05;1668957;84;21025;-76
2022/10/30 00:23:44;;;;;;;52.33;29.75;;;;;;;6.49;89.61;98408.92;1670214;84;21021;-77
2022/10/30 00:26:10;;;;;;;50.50;30.90;;;;;;;6.46;89.89;98409.82;1685758;84;20966;-75
2022/10/30 00:28:37;;;;;;;46.15;28.40;;;;;;;6.43;89.67;98403.67;1666960;84;21065;-76
2022/10/30 00:31:05;;;;;;;52.43;31.00;;;;;;;6.45;89.81;98408.50;1665566;84;20983;-76
2022/10/30 00:33:32;;;;;;;49.35;30.23;;;;;;;6.47;90.02;98410.67;1670997;85;21053;-76
2022/10/30 00:36:00;;;;;;;49.77;29.70;;;;;;;6.46;89.96;98407.19;1687291;85;20989;-76
2022/10/30 00:38:26;;;;;;;61.13;31.85;;;;;;;6.49;90.00;98411.56;1685165;85;21499;-76
2022/10/30 00:40:53;;;;;;;60.43;33.85;;;;;;;6.52;89.93;98409.34;1673409;85;21030;-77
2022/10/30 00:43:36;;;;;;;52.90;32.10;;;;;;;6.54;90.20;98413.72;1663182;86;20959;-77
2022/10/30 00:46:32;;;;;;;53.08;32.20;;;;;;;6.56;89.91;98409.30;1667931;85;20963;-77
2022/10/30 00:49:12;;;;;;;54.98;32.80;;;;;;;6.62;89.87;98408.39;1650241;86;20983;-77
2022/10/30 00:51:44;;;;;;;50.70;30.57;;;;;;;6.66;89.91;98405.30;1668078;86;21082;-78
2022/10/30 00:54:13;;;;;;;44.03;28.30;;;;;;;6.70;90.09;98394.73;1668021;85;20987;-79
2022/10/30 00:56:40;;;;;;;48.10;28.15;;;;;;;6.74;89.88;98389.00;1664591;86;21703;-77
2022/10/30 00:59:15;;;;;;;46.30;27.05;;;;;;;6.79;90.30;98387.63;1668262;85;20971;-77
2022/10/30 01:01:45;;;;;;;42.95;25.70;;;;;;;6.80;90.36;98382.36;1667559;85;20979;-77
2022/10/30 01:04:14;;;;;;;40.63;26.57;;;;;;;6.85;90.60;98381.02;1668304;85;21023;-77
2022/10/30 01:06:47;;;;;;;37.28;25.37;;;;;;;6.89;90.13;98388.45;1648312;86;21022;-79
2022/10/30 01:09:15;;;;;;;39.63;25.52;;;;;;;6.91;90.44;98378.32;1667995;86;21047;-79
2022/10/30 01:11:41;;;;;;;44.30;26.45;;;;;;;6.99;90.77;98378.25;1667822;86;21090;-78
2022/10/30 01:14:10;;;;;;;46.70;25.50;;;;;;;7.04;90.43;98386.10;1664506;85;21537;-77
2022/10/30 01:16:57;;;;;;;40.45;24.87;;;;;;;7.08;90.81;98381.23;1654243;86;20986;-78
2022/10/30 01:19:59;;;;;;;38.73;22.62;;;;;;;7.12;90.28;98383.85;1667811;86;21396;-77
2022/10/30 01:22:57;;;;;;;36.45;23.57;;;;;;;7.18;90.51;98386.00;1667807;86;21011;-77
2022/10/30 01:25:47;;;;;;;40.90;24.45;;;;;;;7.16;90.38;98393.03;1661006;86;21086;-77
2022/10/30 01:28:27;;;;;;;38.85;24.18;;;;;;;7.08;91.00;98386.08;1649764;86;21034;-77
2022/10/30 01:31:35;;;;;;;36.10;22.22;;;;;;;7.09;91.59;98382.98;1668053;85;21006;-78
2022/10/30 01:34:22;;;;;;;34.33;21.48;;;;;;;7.12;91.55;98385.17;1666169;85;21439;-78
2022/10/30 01:37:17;;;;;;;35.58;21.93;;;;;;;7.22;91.65;98374.51;1650654;86;21039;-77
2022/10/30 01:39:44;;;;;;;36.25;22.60;;;;;;;7.25;91.29;98367.47;1667561;86;21055;-81
2022/10/30 01:42:45;;;;;;;36.40;23.75;;;;;;;7.33;91.93;98371.77;1656655;86;20991;-84
2022/10/30 01:45:34;;;;;;;34.15;21.90;;;;;;;7.41;91.95;98367.30;1645930;86;20940;-79
2022/10/30 01:48:30;;;;;;;34.48;22.00;;;;;;;7.48;91.76;98362.37;1666119;86;21048;-79
2022/10/30 01:51:35;;;;;;;37.13;20.90;;;;;;;7.50;91.21;98357.97;1648904;85;21436;-78
2022/10/30 01:54:19;;;;;;;37.23;21.87;;;;;;;7.51;90.99;98357.08;1672242;85;21042;-78
2022/10/30 01:57:14;;;;;;;37.45;21.97;;;;;;;7.52;90.62;98341.67;1687549;85;21026;-77
2022/10/30 01:59:56;;;;;;;;;;;;;;;7.49;90.54;98332.93;1689114;83;21388;-77
2022/10/30 02:02:23;;;;;;;35.10;21.23;;;;;;;7.43;90.47;98335.18;1685494;85;20121;-78
2022/10/30 02:04:50;;;;;;;31.57;20.50;;;;;;;7.35;90.61;98336.59;1685039;85;21065;-77
2022/10/30 02:07:17;;;;;;;33.20;20.80;;;;;;;7.30;90.55;98330.95;1685496;85;20990;-77
2022/10/30 02:09:46;;;;;;;37.50;21.23;;;;;;;7.26;90.34;98332.73;1686883;85;21057;-77
2022/10/30 02:12:14;;;;;;;35.78;21.37;;;;;;;7.26;90.58;98338.00;1686779;85;20993;-77
2022/10/30 02:14:46;;;;;;;31.42;21.02;;;;;;;7.21;90.45;98339.38;1671139;85;21001;-77
2022/10/30 02:17:13;;;;;;;33.33;19.50;;;;;;;7.22;90.67;98334.97;1679407;85;20950;-77
2022/10/30 02:19:41;;;;;;;33.55;20.68;;;;;;;7.23;90.61;98340.69;1658465;84;21425;-77
2022/10/30 02:22:08;;;;;;;32.13;20.50;;;;;;;7.23;90.54;98344.64;1686705;85;21475;-78
2022/10/30 02:24:35;;;;;;;36.30;22.80;;;;;;;7.25;90.81;98344.17;1685492;85;21029;-78
2022/10/30 02:27:02;;;;;;;37.13;23.55;;;;;;;7.26;90.52;98344.16;1669567;85;20986;-78
2022/10/30 02:29:29;;;;;;;37.45;21.82;;;;;;;7.28;90.73;98337.56;1687480;85;21054;-79
2022/10/30 02:31:56;;;;;;;36.63;21.70;;;;;;;7.29;90.43;98335.77;1677625;85;21013;-79
2022/10/30 02:34:22;;;;;;;43.17;24.45;;;;;;;7.32;90.66;98342.34;1687177;85;21017;-79
2022/10/30 02:36:49;;;;;;;38.15;22.65;;;;;;;7.34;90.75;98346.72;1686660;85;21081;-79
2022/10/30 02:39:16;;;;;;;36.50;23.00;;;;;;;7.36;91.30;98335.69;1667422;85;21443;-79
2022/10/30 02:41:43;;;;;;;35.88;21.17;;;;;;;7.36;91.17;98338.33;1687413;85;20990;-78
2022/10/30 02:44:11;;;;;;;33.75;20.48;;;;;;;7.38;91.01;98337.88;1678286;85;20981;-78
2022/10/30 02:46:37;;;;;;;34.67;21.37;;;;;;;7.38;91.02;98335.25;1664856;85;21043;-78
2022/10/30 02:49:05;;;;;;;37.75;21.65;;;;;;;7.41;91.12;98334.34;1659561;85;21072;-78
2022/10/30 02:51:32;;;;;;;36.68;20.70;;;;;;;7.40;90.82;98333.92;1659635;85;21001;-78
2022/10/30 02:54:00;;;;;;;33.10;20.35;;;;;;;7.42;90.78;98347.95;1659591;85;21433;-78
2022/10/30 02:56:27;;;;;;;33.92;21.20;;;;;;;7.37;90.45;98342.73;1659076;85;21464;-78
2022/10/30 02:58:55;;;;;;;36.25;21.25;;;;;;;7.35;90.75;98341.01;1664487;85;20966;-78
2022/10/30 03:01:22;;;;;;;39.95;21.90;;;;;;;7.30;90.55;98350.27;1666792;85;20997;-78
2022/10/30 03:03:50;;;;;;;33.98;20.40;;;;;;;7.26;90.38;98341.95;1670143;84;21347;-77
2022/10/30 03:06:17;;;;;;;34.20;20.90;;;;;;;7.21;90.54;98340.70;1659476;85;20997;-78
2022/10/30 03:08:44;;;;;;;33.38;21.20;;;;;;;7.20;90.82;98334.13;1662628;85;21407;-77
2022/10/30 03:11:15;;;;;;;34.18;21.02;;;;;;;7.17;90.47;98329.76;1685981;85;21009;-77
2022/10/30 03:13:43;;;;;;;34.48;20.77;;;;;;;7.16;91.22;98336.36;1668818;85;21391;-77
2022/10/30 03:16:15;;;;;;;34.60;21.00;;;;;;;7.16;90.74;98338.99;1640544;86;20994;-78
2022/10/30 03:18:42;;;;;;;33.95;21.07;;;;;;;7.18;90.80;98332.81;1661874;85;21656;-77
2022/10/30 03:21:14;;;;;;;33.25;19.92;;;;;;;7.22;90.66;98334.97;1661099;85;20970;-77
2022/10/30 03:23:41;;;;;;;34.83;19.73;;;;;;;7.28;90.85;98344.58;1667929;85;21010;-77
2022/10/30 03:26:08;;;;;;;32.88;19.35;;;;;;;7.30;91.21;98343.67;1659789;85;21415;-77
2022/10/30 03:28:43;;;;;;;31.25;17.73;;;;;;;7.33;91.00;98341.45;1657896;85;21033;-77
2022/10/30 03:31:13;;;;;;;31.12;18.30;;;;;;;7.39;91.08;98334.78;1660962;84;21081;-79
2022/10/30 03:33:40;;;;;;;30.55;18.00;;;;;;;7.45;90.87;98333.42;1659687;85;21053;-79
2022/10/30 03:36:10;;;;;;;27.98;18.37;;;;;;;7.52;90.84;98336.39;1665084;85;21025;-79
2022/10/30 03:38:37;;;;;;;32.45;18.07;;;;;;;7.59;90.96;98332.36;1659723;85;21022;-78
2022/10/30 03:41:06;;;;;;;33.95;17.87;;;;;;;7.65;91.10;98329.67;1664543;85;22244;-78
2022/10/30 03:43:32;;;;;;;32.78;18.27;;;;;;;7.71;91.12;98325.63;1659623;85;21006;-79
2022/10/30 03:45:59;;;;;;;32.55;18.40;;;;;;;7.83;91.27;98325.03;1659773;85;20985;-78
2022/10/30 03:48:28;;;;;;;34.80;19.35;;;;;;;7.86;90.73;98332.92;1660028;85;21057;-79
2022/10/30 03:50:58;;;;;;;36.48;17.73;;;;;;;7.85;90.42;98329.86;1659593;85;21041;-79
2022/10/30 03:53:27;;;;;;;33.05;17.92;;;;;;;7.83;90.61;98330.31;1659444;85;21447;-79
2022/10/30 03:56:01;;;;;;;32.98;17.98;;;;;;;7.85;90.81;98335.14;1659639;85;21012;-78
2022/10/30 03:58:31;;;;;;;37.25;17.80;;;;;;;7.93;91.05;98341.17;1661011;85;21458;-76
2022/10/30 04:01:05;;;;;;;33.90;18.80;;;;;;;8.00;91.31;98338.89;1659532;85;20982;-75
2022/10/30 04:03:35;;;;;;;33.53;18.80;;;;;;;8.07;91.33;98329.13;1658950;85;20993;-75
2022/10/30 04:06:01;;;;;;;34.43;18.35;;;;;;;8.14;91.12;98333.41;1672487;85;21448;-78
2022/10/30 04:08:30;;;;;;;36.15;17.60;;;;;;;8.18;91.24;98331.16;1659467;85;21416;-78
2022/10/30 04:10:57;;;;;;;34.15;18.90;;;;;;;8.23;91.02;98338.14;1659667;85;21070;-76
2022/10/30 04:13:24;;;;;;;33.73;17.80;;;;;;;8.23;90.87;98330.22;1659603;85;20982;-76
2022/10/30 04:15:52;;;;;;;38.20;18.55;;;;;;;8.22;90.63;98330.66;1664220;85;20999;-76
2022/10/30 04:18:21;;;;;;;30.97;18.25;;;;;;;8.16;90.25;98329.43;1687522;85;21018;-76
2022/10/30 04:20:48;;;;;;;40.50;19.75;;;;;;;8.10;90.42;98329.53;1687385;85;21407;-76
2022/10/30 04:23:18;;;;;;;41.95;18.80;;;;;;;8.03;91.12;98330.05;1687708;85;21427;-76
2022/10/30 04:25:48;;;;;;;37.05;17.90;;;;;;;7.92;90.86;98324.91;1677507;85;21025;-76
2022/10/30 04:28:16;;;;;;;41.35;18.87;;;;;;;7.87;90.54;98322.78;1683832;85;21028;-76
2022/10/30 04:30:45;;;;;;;44.33;19.77;;;;;;;7.82;90.82;98328.57;1687138;85;20990;-76
2022/10/30 04:33:13;;;;;;;40.67;19.62;;;;;;;7.75;91.23;98335.25;1687626;85;21006;-77
2022/10/30 04:35:41;;;;;;;46.95;18.98;;;;;;;7.70;91.72;98326.53;1678823;85;21077;-76
2022/10/30 04:38:14;;;;;;;43.63;19.23;;;;;;;7.70;91.17;98336.20;1679942;85;20997;-76
2022/10/30 04:40:43;;;;;;;47.25;18.77;;;;;;;7.65;91.63;98331.84;1687428;85;21002;-77
2022/10/30 04:43:13;;;;;;;39.38;19.45;;;;;;;7.65;91.86;98333.16;1686490;85;21009;-76
2022/10/30 04:45:41;;;;;;;38.55;20.20;;;;;;;7.62;91.74;98341.13;1679272;85;21012;-77
2022/10/30 04:48:12;;;;;;;40.58;19.62;;;;;;;7.57;92.43;98349.98;1677341;85;21431;-76
2022/10/30 04:50:39;;;;;;;37.00;19.32;;;;;;;7.53;92.32;98342.55;1684861;85;21359;-77
2022/10/30 04:53:16;;;;;;;40.15;18.80;;;;;;;7.55;92.10;98345.19;1670362;85;21409;-76
2022/10/30 04:55:45;;;;;;;40.08;19.35;;;;;;;7.56;92.08;98350.41;1686867;85;21431;-76
2022/10/30 04:58:13;;;;;;;39.60;19.48;;;;;;;7.58;92.65;98351.29;1687287;85;20982;-76
2022/10/30 05:00:42;;;;;;;37.95;19.30;;;;;;;7.58;92.24;98353.92;1687387;85;21054;-79
2022/10/30 05:03:22;;;;;;;42.88;20.35;;;;;;;7.60;92.10;98359.19;1679549;85;21010;-78
2022/10/30 05:06:06;;;;;;;46.40;22.27;;;;;;;7.61;92.23;98359.61;1687530;85;20993;-79
2022/10/30 05:08:33;;;;;;;45.98;21.35;;;;;;;7.60;92.22;98359.19;1687531;85;20962;-78
2022/10/30 05:11:04;;;;;;;40.15;21.40;;;;;;;7.59;92.17;98354.78;1687396;84;20982;-78
2022/10/30 05:13:31;;;;;;;44.35;21.27;;;;;;;7.59;92.10;98366.22;1677427;85;21001;-78
2022/10/30 05:15:57;;;;;;;48.73;22.17;;;;;;;7.60;92.07;98377.66;1668141;85;21006;-78
2022/10/30 05:18:24;;;;;;;46.92;21.80;;;;;;;7.59;92.50;98373.24;1687098;85;21013;-79
2022/10/30 05:20:50;;;;;;;43.90;21.55;;;;;;;7.59;92.33;98376.77;1688294;85;21013;-78
2022/10/30 05:23:17;;;;;;;46.05;21.15;;;;;;;7.61;94.25;98379.39;1681539;85;21447;-78
2022/10/30 05:25:44;;;;;;;42.05;19.65;;;;;;;7.60;92.38;98375.02;1687028;85;20966;-78
2022/10/30 05:28:12;;;;;;;41.77;19.35;;;;;;;7.64;92.48;98372.31;1687462;85;20998;-77
2022/10/30 05:30:41;;;;;;;40.33;20.10;;;;;;;7.65;93.65;98385.06;1686752;84;21014;-77
2022/10/30 05:33:12;;;;;;;40.25;19.40;;;;;;;7.67;93.53;98378.00;1678759;85;21045;-78
2022/10/30 05:35:39;;;;;;;37.53;19.15;;;;;;;7.70;94.23;98371.38;1681251;85;21087;-77
2022/10/30 05:38:07;;;;;;;35.88;18.35;;;;;;;7.74;94.28;98374.84;1673375;86;21034;-78
2022/10/30 05:40:34;;;;;;;35.88;17.60;;;;;;;7.79;94.58;98375.23;1673258;85;21014;-77
2022/10/30 05:43:01;;;;;;;32.20;17.17;;;;;;;7.86;94.43;98366.80;1664185;85;20966;-78
2022/10/30 05:45:29;;;;;;;33.20;17.42;;;;;;;7.89;94.76;98369.84;1673320;86;20927;-77
2022/10/30 05:48:01;;;;;;;32.70;16.27;;;;;;;7.93;94.51;98367.12;1673284;86;20978;-77
2022/10/30 05:50:30;;;;;;;33.15;16.77;;;;;;;7.99;94.92;98364.86;1673437;83;21527;-77
2022/10/30 05:53:15;;;;;;;34.85;16.97;;;;;;;8.04;94.47;98361.72;1662164;85;21002;-77
2022/10/30 05:55:43;;;;;;;34.80;16.73;;;;;;;8.10;95.21;98354.60;1673624;85;21019;-77
2022/10/30 05:58:11;;;;;;;45.30;22.40;;;;;;;8.19;94.82;98347.41;1673186;85;21070;-78
2022/10/30 06:00:41;;;;;;;30.65;15.83;;;;;;;8.28;94.64;98351.71;1668889;85;21049;-78
2022/10/30 06:03:11;;;;;;;29.40;15.63;;;;;;;8.33;95.02;98358.23;1665496;85;20999;-79
2022/10/30 06:05:40;;;;;;;28.75;14.58;;;;;;;8.39;94.86;98349.36;1674179;84;21010;-78
2022/10/30 06:08:08;;;;;;;30.27;14.80;;;;;;;8.48;94.79;98343.94;1673778;85;21118;-76
2022/10/30 06:10:36;;;;;;;29.82;15.80;;;;;;;8.52;95.23;98346.08;1670139;84;21002;-77
2022/10/30 06:13:06;;;;;;;24.37;13.35;;;;;;;8.62;95.52;98357.38;1660993;86;21484;-77
2022/10/30 06:15:38;;;;;;;28.73;15.40;;;;;;;8.66;95.43;98359.97;1653351;85;21002;-77
2022/10/30 06:18:05;;;;;;;28.20;14.73;;;;;;;8.71;95.42;98350.64;1673295;84;21018;-77
2022/10/30 06:20:33;;;;;;;26.77;13.98;;;;;;;8.75;96.12;98361.59;1670225;85;20951;-77
2022/10/30 06:23:18;;;;;;;26.55;14.55;;;;;;;8.81;95.94;98354.87;1657251;85;21002;-77
2022/10/30 06:25:49;;;;;;;32.42;15.50;;;;;;;8.90;95.59;98352.98;1673255;85;21034;-79
2022/10/30 06:28:32;;;;;;;29.45;15.50;;;;;;;9.00;95.29;98351.92;1673277;83;21432;-79
2022/10/30 06:30:59;;;;;;;29.15;15.10;;;;;;;9.08;94.99;98347.37;1668483;85;21026;-77
2022/10/30 06:33:25;;;;;;;29.50;15.60;;;;;;;9.16;94.66;98351.64;1673394;85;21058;-79
2022/10/30 06:35:52;;;;;;;27.35;14.68;;;;;;;9.22;95.02;98351.08;1673472;84;21417;-79
2022/10/30 06:38:19;;;;;;;34.03;15.30;;;;;;;9.32;94.90;98346.95;1673425;85;21476;-79
2022/10/30 06:40:48;;;;;;;30.02;15.23;;;;;;;9.41;94.75;98339.28;1669221;86;21458;-79
2022/10/30 06:43:19;;;;;;;35.05;16.65;;;;;;;9.41;94.32;98341.48;1642388;85;21023;-79
2022/10/30 06:45:48;;;;;;;30.75;15.38;;;;;;;9.42;94.38;98343.22;1672623;86;21078;-79
2022/10/30 06:48:15;;;;;;;32.00;16.48;;;;;;;9.45;94.17;98334.36;1673213;85;20994;-79
2022/10/30 06:50:43;;;;;;;35.38;16.90;;;;;;;9.44;94.00;98337.91;1669498;86;21054;-79
2022/10/30 06:53:10;;;;;;;33.40;15.88;;;;;;;9.44;94.23;98341.44;1668517;85;21042;-78
2022/10/30 06:55:58;;;;;;;29.57;16.35;;;;;;;9.53;93.97;98336.84;1775347;79;23540;-76
2022/10/30 06:58:29;;;;;;;35.60;17.77;;;;;;;9.47;94.00;98337.39;1751579;80;21482;-79
2022/10/30 07:00:59;;;;;;;35.33;17.80;;;;;;;9.46;93.51;98340.06;1752854;80;21448;-78
2022/10/30 07:03:34;;;;;;;33.30;17.25;;;;;;;9.46;94.06;98342.70;1767174;80;20992;-78
2022/10/30 07:06:01;;;;;;;34.55;16.37;;;;;;;9.47;94.14;98345.33;1771991;80;20992;-79
2022/10/30 07:08:28;;;;;;;30.75;16.95;;;;;;;9.46;95.13;98346.23;1791186;80;21043;-78
2022/10/30 07:10:58;;;;;;;35.78;17.30;;;;;;;9.48;94.65;98345.74;1771016;80;20949;-78
2022/10/30 07:13:24;;;;;;;30.60;16.75;;;;;;;9.53;94.69;98334.20;1770301;80;21386;-77
2022/10/30 07:15:58;;;;;;;;;;;;;;;9.54;94.39;98332.85;1733059;80;21409;-77
2022/10/30 07:18:27;;;;;;;36.00;17.12;;;;;;;9.57;94.79;98326.63;1721855;80;20129;-77
2022/10/30 07:20:56;;;;;;;34.55;17.30;;;;;;;9.63;94.40;98318.12;1732252;80;20980;-77
2022/10/30 07:23:24;;;;;;;35.52;17.15;;;;;;;9.68;94.59;98325.95;1744651;80;21011;-76
2022/10/30 07:25:52;;;;;;;33.55;17.77;;;;;;;9.71;94.15;98321.08;1726635;80;21396;-77
2022/10/30 07:28:23;;;;;;;33.98;18.73;;;;;;;9.73;94.39;98315.28;1722478;80;21031;-77
2022/10/30 07:30:59;;;;;;;;;;;;;;;9.71;94.84;98316.63;1720527;80;21023;-77
2022/10/30 07:33:30;;;;;;;30.72;15.70;;;;;;;9.66;94.96;98314.97;1690912;82;20146;-77
2022/10/30 07:36:11;;;;;;;35.52;17.70;;;;;;;9.64;94.96;98313.23;1723207;80;20987;-78
2022/10/30 07:38:43;;;;;;;31.70;16.35;;;;;;;9.70;95.25;98314.02;1740063;80;20993;-78
2022/10/30 07:41:11;;;;;;;33.90;16.17;;;;;;;9.76;95.96;98316.08;1742365;80;21027;-78
2022/10/30 07:43:43;;;;;;;33.65;18.02;;;;;;;9.85;95.92;98307.06;1721593;80;21042;-78
2022/10/30 07:46:23;;;;;;;32.08;15.25;;;;;;;9.96;96.05;98310.81;1723965;80;20996;-78
2022/10/30 07:49:06;;;;;;;32.67;16.15;;;;;;;10.03;95.67;98315.08;1737531;80;21004;-78
2022/10/30 07:51:38;;;;;;;30.15;16.15;;;;;;;10.15;95.47;98308.64;1739711;80;21016;-78
2022/10/30 07:54:05;;;;;;;30.72;15.50;;;;;;;10.25;95.36;98313.25;1719014;80;21094;-77
2022/10/30 07:56:33;;;;;;;25.20;13.68;;;;;;;10.39;95.32;98309.42;1713383;80;21016;-77
2022/10/30 07:59:04;;;;;;;30.08;16.55;;;;;;;10.54;94.94;98310.41;1699731;81;21001;-77
2022/10/30 08:01:31;;;;;;;26.42;13.10;;;;;;;10.70;95.08;98302.06;1772311;80;20967;-77
2022/10/30 08:03:59;;;;;;;26.52;13.28;;;;;;;10.88;94.40;98306.02;1751398;80;21117;-78
2022/10/30 08:06:28;;;;;;;22.67;13.45;;;;;;;10.98;93.11;98304.02;1732520;80;21091;-78
2022/10/30 08:08:54;;;;;;;24.23;12.93;;;;;;;11.06;93.33;98299.83;1762197;80;21078;-78
2022/10/30 08:11:25;;;;;;;28.12;14.30;;;;;;;11.07;92.63;98294.94;1755166;80;21055;-78
2022/10/30 08:13:52;;;;;;;24.25;14.68;;;;;;;11.09;92.59;98286.03;1743318;80;21446;-78
2022/10/30 08:16:19;;;;;;;25.60;14.45;;;;;;;11.16;92.58;98285.41;1746708;80;21018;-77
2022/10/30 08:18:45;;;;;;;24.47;14.03;;;;;;;11.25;92.37;98286.93;1769108;80;20980;-77
2022/10/30 08:21:14;;;;;;;25.77;15.15;;;;;;;11.37;91.42;98292.35;1770061;80;20992;-78
2022/10/30 08:23:54;;;;;;;26.20;15.23;;;;;;;11.39;90.79;98281.70;1771561;80;20991;-78
2022/10/30 08:26:21;;;;;;;30.65;16.02;;;;;;;11.44;90.59;98289.08;1766281;80;20937;-78
2022/10/30 08:28:48;;;;;;;28.35;15.88;;;;;;;11.45;90.57;98283.73;1769913;80;20953;-76
2022/10/30 08:31:15;;;;;;;26.45;15.23;;;;;;;11.54;90.34;98285.23;1745676;81;21031;-76
2022/10/30 08:33:55;;;;;;;26.90;15.23;;;;;;;11.61;90.42;98293.45;1723298;80;21397;-77
2022/10/30 08:36:27;;;;;;;22.67;13.80;;;;;;;11.68;90.62;98302.12;1766287;80;20949;-77
2022/10/30 08:38:53;;;;;;;26.00;15.48;;;;;;;11.80;90.83;98294.25;1768110;80;21382;-77
2022/10/30 08:41:22;;;;;;;43.13;25.45;;;;;;;11.92;90.59;98295.64;1760791;80;20941;-77
2022/10/30 08:43:50;;;;;;;27.00;16.62;;;;;;;12.01;89.87;98296.69;1768429;80;21385;-76
2022/10/30 08:46:17;;;;;;;24.37;15.03;;;;;;;12.07;89.64;98296.12;1762442;80;21248;-75
2022/10/30 08:48:43;;;;;;;23.90;14.35;;;;;;;12.14;89.71;98297.20;1765417;80;21354;-76
2022/10/30 08:51:10;;;;;;;23.90;14.13;;;;;;;12.19;88.89;98301.52;1759862;80;21038;-76
2022/10/30 08:53:38;;;;;;;27.02;15.18;;;;;;;12.16;88.84;98303.80;1774629;80;20992;-75
2022/10/30 08:56:07;;;;;;;25.15;13.98;;;;;;;12.21;88.09;98300.55;1770946;80;20956;-76
2022/10/30 08:58:49;;;;;;;23.45;14.23;;;;;;;12.28;88.42;98298.12;1736832;80;21019;-76
2022/10/30 09:01:16;;;;;;;24.63;13.93;;;;;;;12.35;88.39;98301.45;1767606;80;21027;-76
2022/10/30 09:03:59;;;;;;;24.43;14.63;;;;;;;12.44;88.37;98306.05;1683462;84;21052;-76
2022/10/30 09:06:33;;;;;;;24.47;15.78;;;;;;;12.57;88.18;98322.50;1742982;80;20964;-76
2022/10/30 09:09:20;;;;;;;26.07;14.13;;;;;;;12.71;87.57;98337.99;1756074;80;20965;-77
2022/10/30 09:11:48;;;;;;;22.80;14.63;;;;;;;12.79;87.48;98331.97;1770773;80;21008;-76
2022/10/30 09:14:15;;;;;;;25.70;15.32;;;;;;;12.93;87.11;98333.70;1755944;80;21028;-76
2022/10/30 09:16:42;;;;;;;24.77;15.38;;;;;;;13.06;87.31;98330.16;1727258;80;21473;-76
2022/10/30 09:19:09;;;;;;;21.57;14.35;;;;;;;13.18;87.16;98326.66;1748033;80;20978;-76
2022/10/30 09:21:36;;;;;;;26.40;15.43;;;;;;;13.30;86.60;98326.24;1744737;80;21018;-76
2022/10/30 09:24:06;;;;;;;26.17;15.90;;;;;;;13.44;86.48;98332.84;1728071;80;21500;-76
2022/10/30 09:26:37;;;;;;;24.77;16.23;;;;;;;13.54;85.76;98330.77;1746012;80;20956;-76
2022/10/30 09:29:11;;;;;;;23.67;14.87;;;;;;;13.57;85.27;98326.64;1748020;80;20961;-76
2022/10/30 09:31:58;;;;;;;24.65;15.45;;;;;;;13.58;85.05;98316.42;1749216;80;21003;-77
2022/10/30 09:34:29;;;;;;;25.05;15.10;;;;;;;13.58;84.67;98301.77;1727214;80;21389;-77
2022/10/30 09:37:17;;;;;;;27.10;14.80;;;;;;;13.67;84.92;98288.57;1743410;80;21053;-77
2022/10/30 09:39:47;;;;;;;22.87;15.43;;;;;;;13.77;83.18;98293.07;1730216;80;21434;-76
2022/10/30 09:42:35;;;;;;;22.32;14.78;;;;;;;13.79;82.92;98300.08;1753081;80;21071;-76
2022/10/30 09:45:29;;;;;;;32.20;15.40;;;;;;;13.85;83.41;98302.53;1727229;80;21361;-75
2022/10/30 09:48:23;;;;;;;22.42;14.87;;;;;;;13.92;83.09;98303.62;1728637;80;21003;-78
2022/10/30 09:51:27;;;;;;;20.88;14.28;;;;;;;13.90;82.09;98306.34;1764277;80;20956;-77
2022/10/30 09:54:14;;;;;;;25.32;15.10;;;;;;;13.84;82.28;98308.76;1727020;80;20968;-77
2022/10/30 09:56:50;;;;;;;22.00;14.58;;;;;;;13.92;82.32;98299.63;1726769;80;21011;-75
2022/10/30 09:59:22;;;;;;;20.85;14.73;;;;;;;13.98;82.39;98297.59;1726515;80;21105;-75
2022/10/30 10:01:54;;;;;;;23.55;14.47;;;;;;;14.03;80.82;98292.55;1759623;80;20976;-75
2022/10/30 10:04:29;;;;;;;23.12;15.58;;;;;;;14.09;82.04;98289.19;1735352;80;21059;-76
2022/10/30 10:07:08;;;;;;;22.37;14.50;;;;;;;14.18;81.72;98287.07;1726949;80;21008;-76
2022/10/30 10:09:43;;;;;;;21.87;14.40;;;;;;;14.25;80.89;98281.91;1735395;80;21007;-76
2022/10/30 10:12:29;;;;;;;23.77;14.25;;;;;;;14.37;81.54;98281.89;1760938;80;21023;-76
2022/10/30 10:14:57;;;;;;;21.48;14.38;;;;;;;14.57;81.49;98270.38;1740713;82;21419;-76
2022/10/30 10:17:32;;;;;;;19.65;13.50;;;;;;;14.74;80.42;98265.67;1727328;82;21005;-76
2022/10/30 10:20:02;;;;;;;24.07;14.47;;;;;;;14.92;80.59;98265.87;1736889;82;21025;-76
2022/10/30 10:22:48;;;;;;;23.80;14.58;;;;;;;14.99;79.27;98269.99;1731295;80;20977;-76
2022/10/30 10:25:19;;;;;;;27.52;17.85;;;;;;;15.05;79.04;98279.55;1761339;80;20980;-75
2022/10/30 10:28:18;;;;;;;26.87;17.73;;;;;;;15.09;78.88;98282.48;1771935;80;21478;-76
2022/10/30 10:31:05;;;;;;;23.00;15.28;;;;;;;15.14;77.22;98282.27;1751642;80;20981;-76
2022/10/30 10:34:04;;;;;;;21.33;15.43;;;;;;;15.17;78.49;98284.33;1727199;81;21001;-76
2022/10/30 10:36:45;;;;;;;22.02;15.48;;;;;;;15.29;77.24;98272.73;1733142;80;20930;-84
2022/10/30 10:39:48;;;;;;;23.92;16.65;;;;;;;15.52;75.97;98270.81;1747531;80;21045;-83
2022/10/30 10:43:02;;;;;;;22.85;15.88;;;;;;;15.75;74.81;98273.79;1754351;80;21017;-82
2022/10/30 10:45:37;;;;;;;20.70;14.00;;;;;;;15.88;75.95;98276.75;1747722;80;21012;-83
2022/10/30 10:48:30;;;;;;;22.85;15.93;;;;;;;15.92;76.07;98273.00;1748770;80;21008;-84
2022/10/30 10:51:07;;;;;;;22.48;14.87;;;;;;;16.06;74.63;98267.02;1750412;80;21004;-85
2022/10/30 10:53:52;;;;;;;22.05;14.85;;;;;;;16.15;74.25;98266.20;1747323;80;20961;-86
2022/10/30 10:56:20;;;;;;;;;;;;;;;16.74;74.22;98261.48;1751238;80;21008;-83
2022/10/30 10:58:58;;;;;;;20.85;14.40;;;;;;;17.75;73.10;98260.77;1747299;80;20129;-84
2022/10/30 11:01:41;;;;;;;22.22;14.53;;;;;;;18.20;71.76;98262.81;1756480;80;21403;-71
2022/10/30 11:04:16;;;;;;;17.85;13.75;;;;;;;18.91;67.27;98258.30;1752245;80;21065;-69
2022/10/30 11:06:48;;;;;;;18.12;14.03;;;;;;;19.27;63.58;98255.74;1753441;80;20929;-69
2022/10/30 11:09:21;;;;;;;21.12;14.43;;;;;;;19.22;64.58;98257.84;1756995;80;21447;-69
2022/10/30 11:11:51;;;;;;;18.87;13.93;;;;;;;18.64;62.49;98266.55;1757574;80;21016;-69
2022/10/30 11:14:21;;;;;;;17.45;13.20;;;;;;;18.31;64.89;98260.38;1747266;80;21506;-68
2022/10/30 11:17:11;;;;;;;20.25;14.83;;;;;;;18.22;65.03;98245.30;1740505;80;20999;-69
2022/10/30 11:19:38;;;;;;;17.12;13.93;;;;;;;18.06;64.40;98246.14;1735859;80;21011;-68
2022/10/30 11:22:12;;;;;;;18.07;13.32;;;;;;;17.91;64.61;98235.78;1747128;82;21443;-69
2022/10/30 11:24:39;;;;;;;18.82;13.80;;;;;;;17.65;64.64;98236.27;1729094;81;20975;-69
2022/10/30 11:27:29;;;;;;;21.57;15.85;;;;;;;17.53;65.38;98233.78;1733249;82;20964;-70
2022/10/30 11:30:01;;;;;;;22.62;14.95;;;;;;;17.47;66.57;98227.88;1709033;83;20993;-70
2022/10/30 11:32:31;;;;;;;20.82;15.93;;;;;;;17.36;66.16;98236.03;1734410;82;20973;-70
2022/10/30 11:35:11;;;;;;;22.07;15.70;;;;;;;17.22;65.99;98220.70;1762197;80;21036;-70
2022/10/30 11:37:41;;;;;;;21.35;14.47;;;;;;;17.28;66.92;98216.35;1760520;80;21386;-69
2022/10/30 11:40:16;;;;;;;19.70;13.58;;;;;;;17.66;66.35;98213.87;1739504;80;21043;-69
2022/10/30 11:42:59;;;;;;;23.02;14.85;;;;;;;17.62;65.50;98204.30;1728246;82;20969;-70
2022/10/30 11:45:33;;;;;;;21.37;13.83;;;;;;;17.70;66.41;98199.84;1689658;82;21016;-66
2022/10/30 11:48:00;;;;;;;17.82;13.90;;;;;;;17.63;66.42;98201.13;1729293;82;21453;-69
2022/10/30 11:50:30;;;;;;;21.50;14.93;;;;;;;17.57;65.65;98210.84;1728272;82;21036;-69